createdAt,value
2022-08-17T00:00:34.472Z,21.60
2022-08-17T00:05:44.031Z,22.00
2022-08-17T00:10:47.428Z,22.00
2022-08-17T00:15:50.957Z,21.90
2022-08-17T00:20:54.749Z,21.70
2022-08-17T00:25:56.891Z,21.60
2022-08-17T00:30:59.297Z,21.90
2022-08-17T00:36:02.965Z,21.60
2022-08-17T00:41:20.928Z,21.40
2022-08-17T00:46:33.027Z,21.50
2022-08-17T00:52:00.266Z,21.50
2022-08-17T00:57:09.995Z,21.60
2022-08-17T01:02:15.042Z,21.50
2022-08-17T01:07:19.462Z,21.50
2022-08-17T01:12:21.657Z,21.50
2022-08-17T01:17:23.822Z,21.50
2022-08-17T01:22:26.686Z,21.50
2022-08-17T01:27:29.195Z,21.40
2022-08-17T01:32:31.584Z,21.50
2022-08-17T01:37:37.627Z,21.40
2022-08-17T01:42:51.548Z,21.40
2022-08-17T01:47:54.840Z,21.30
2022-08-17T01:53:01.800Z,21.20
2022-08-17T01:58:08.846Z,21.10
2022-08-17T02:03:12.743Z,21.00
2022-08-17T02:08:20.406Z,21.00
2022-08-17T02:13:22.914Z,20.90
2022-08-17T02:18:25.697Z,20.90
2022-08-17T02:23:30.144Z,20.70
2022-08-17T02:28:32.343Z,20.90
2022-08-17T02:33:42.070Z,20.90
2022-08-17T02:38:45.574Z,20.40
2022-08-17T02:43:47.658Z,20.40
2022-08-17T02:48:50.399Z,20.90
2022-08-17T02:53:52.714Z,20.80
2022-08-17T02:59:14.841Z,20.80
2022-08-17T03:04:16.943Z,20.60
2022-08-17T03:09:19.067Z,20.80
2022-08-17T03:14:21.516Z,20.70
2022-08-17T03:19:28.433Z,20.90
2022-08-17T03:24:30.593Z,20.90
2022-08-17T03:29:32.696Z,20.60
2022-08-17T03:34:34.845Z,20.80
2022-08-17T03:39:37.062Z,20.70
2022-08-17T03:44:39.433Z,21.20
2022-08-17T03:50:00.046Z,20.80
2022-08-17T03:55:20.667Z,20.80
2022-08-17T04:00:39.767Z,20.80
2022-08-17T04:05:42.475Z,20.70
2022-08-17T04:10:45.197Z,20.60
2022-08-17T04:15:49.131Z,20.90
2022-08-17T04:20:51.247Z,20.90
2022-08-17T04:25:53.839Z,21.10
2022-08-17T04:30:59.577Z,21.40
2022-08-17T04:36:04.571Z,21.60
2022-08-17T04:41:28.964Z,21.40
2022-08-17T04:46:34.494Z,21.40
2022-08-17T04:51:54.680Z,21.50
2022-08-17T04:57:02.139Z,21.50
2022-08-17T05:02:04.288Z,21.60
2022-08-17T05:07:06.387Z,21.70
2022-08-17T05:12:08.524Z,21.60
2022-08-17T05:17:11.301Z,21.90
2022-08-17T05:22:14.588Z,22.10
2022-08-17T05:27:19.141Z,22.10
2022-08-17T05:32:39.285Z,21.70
2022-08-17T05:37:42.362Z,22.10
2022-08-17T05:42:44.662Z,22.70
2022-08-17T05:47:48.273Z,22.80
2022-08-17T05:53:11.354Z,23.10
2022-08-17T05:58:16.179Z,22.70
2022-08-17T06:03:45.897Z,23.30
2022-08-17T06:09:01.984Z,23.10
2022-08-17T06:14:18.186Z,23.30
2022-08-17T06:19:40.557Z,23.20
2022-08-17T06:24:54.091Z,23.10
2022-08-17T06:30:09.207Z,23.40
2022-08-17T06:35:15.420Z,23.70
2022-08-17T06:40:29.391Z,23.20
2022-08-17T06:45:37.360Z,23.50
2022-08-17T06:50:42.377Z,23.60
2022-08-17T06:55:58.496Z,23.50
2022-08-17T07:01:20.573Z,23.60
2022-08-17T07:06:27.660Z,23.70
2022-08-17T07:11:38.969Z,23.40
2022-08-17T07:16:47.799Z,23.60
2022-08-17T07:21:57.402Z,23.70
2022-08-17T07:27:05.772Z,23.90
2022-08-17T07:32:09.835Z,24.00
2022-08-17T07:37:12.620Z,23.90
2022-08-17T07:42:14.746Z,23.90
2022-08-17T07:47:36.044Z,24.00
2022-08-17T07:52:50.692Z,24.30
2022-08-17T07:57:59.081Z,24.10
2022-08-17T08:03:11.167Z,24.10
2022-08-17T08:08:30.147Z,24.10
2022-08-17T08:13:33.446Z,24.00
2022-08-17T08:18:54.606Z,23.90
2022-08-17T08:24:07.622Z,24.00
2022-08-17T08:29:39.659Z,24.00
2022-08-17T08:35:13.015Z,24.30
2022-08-17T08:40:24.743Z,24.40
2022-08-17T08:45:44.630Z,24.60
2022-08-17T08:50:56.976Z,24.80
2022-08-17T08:56:09.069Z,25.00
2022-08-17T09:01:29.418Z,25.30
2022-08-17T09:06:43.302Z,25.40
2022-08-17T09:12:03.983Z,25.60
2022-08-17T09:17:21.822Z,25.80
2022-08-17T09:22:31.205Z,26.20
2022-08-17T09:27:41.674Z,26.00
2022-08-17T09:32:49.855Z,26.10
2022-08-17T09:38:05.137Z,26.30
2022-08-17T09:43:37.503Z,26.40
2022-08-17T09:48:46.955Z,26.50
2022-08-17T09:53:50.659Z,26.60
2022-08-17T09:59:13.873Z,26.50
2022-08-17T10:04:36.153Z,26.60
2022-08-17T10:09:55.837Z,26.50
2022-08-17T10:15:13.980Z,26.70
2022-08-17T10:20:28.566Z,26.70
2022-08-17T10:26:10.106Z,26.70
2022-08-17T10:31:36.165Z,26.90
2022-08-17T10:37:01.074Z,27.00
2022-08-17T10:42:33.002Z,27.10
2022-08-17T10:48:06.127Z,27.40
2022-08-17T10:53:09.036Z,27.60
2022-08-17T10:58:21.809Z,27.80
2022-08-17T11:03:26.088Z,28.10
2022-08-17T11:08:43.723Z,28.30
2022-08-17T11:14:04.498Z,28.50
2022-08-17T11:19:18.884Z,28.70
2022-08-17T11:24:43.366Z,28.90
2022-08-17T11:29:58.141Z,29.00
2022-08-17T11:35:22.306Z,29.00
2022-08-17T11:40:59.542Z,29.30
2022-08-17T11:46:51.669Z,29.30
2022-08-17T11:52:04.949Z,29.30
2022-08-17T11:57:26.451Z,29.20
2022-08-17T12:02:31.719Z,29.20
2022-08-17T12:07:42.865Z,29.20
2022-08-17T12:12:48.285Z,29.20
2022-08-17T12:17:53.786Z,29.40
2022-08-17T12:23:01.416Z,29.50
2022-08-17T12:28:07.870Z,29.60
2022-08-17T12:33:13.582Z,29.70
2022-08-17T12:38:33.316Z,29.80
2022-08-17T12:43:35.769Z,29.80
2022-08-17T12:48:38.043Z,29.90
2022-08-17T12:53:54.982Z,30.00
2022-08-17T12:58:57.834Z,30.30
2022-08-17T13:04:00.661Z,30.60
2022-08-17T13:09:35.664Z,31.00
2022-08-17T13:14:44.739Z,31.50
2022-08-17T13:19:50.680Z,31.80
2022-08-17T13:25:00.884Z,32.20
2022-08-17T13:30:12.005Z,32.60
2022-08-17T13:35:40.029Z,33.00
2022-08-17T13:40:50.139Z,33.40
2022-08-17T13:45:53.116Z,33.90
2022-08-17T13:50:55.225Z,34.30
2022-08-17T13:56:37.167Z,34.70
2022-08-17T14:01:36.599Z,35.10
2022-08-17T14:06:56.921Z,35.40
2022-08-17T14:12:00.378Z,35.90
2022-08-17T14:17:03.721Z,36.30
2022-08-17T14:22:11.528Z,36.70
2022-08-17T14:27:13.671Z,37.00
2022-08-17T14:32:21.007Z,37.50
2022-08-17T14:37:26.187Z,37.90
2022-08-17T14:42:32.385Z,38.10
2022-08-17T14:47:37.353Z,38.10
2022-08-17T14:52:43.805Z,38.20
2022-08-17T14:57:46.111Z,38.40
2022-08-17T15:02:54.768Z,38.70
2022-08-17T15:07:57.474Z,39.00
2022-08-17T15:13:00.387Z,39.40
2022-08-17T15:18:03.052Z,39.80
2022-08-17T15:23:06.905Z,40.10
2022-08-17T15:28:09.107Z,40.30
2022-08-17T15:33:17.489Z,40.70
2022-08-17T15:38:19.939Z,41.30
2022-08-17T15:43:32.515Z,41.70
2022-08-17T15:48:41.704Z,42.00
2022-08-17T15:53:48.326Z,42.10
2022-08-17T15:58:50.694Z,41.70
2022-08-17T16:04:04.631Z,40.90
2022-08-17T16:09:09.512Z,40.10
2022-08-17T16:14:11.891Z,39.20
2022-08-17T16:19:16.809Z,38.40
2022-08-17T16:24:19.035Z,37.70
2022-08-17T16:29:21.656Z,37.20
2022-08-17T16:34:23.907Z,36.70
2022-08-17T16:39:28.819Z,36.30
2022-08-17T16:44:32.154Z,35.90
2022-08-17T16:49:37.223Z,35.50
2022-08-17T16:54:43.339Z,35.10
2022-08-17T16:59:50.179Z,34.80
2022-08-17T17:05:14.201Z,34.50
2022-08-17T17:10:22.286Z,34.30
2022-08-17T17:15:30.348Z,34.00
2022-08-17T17:20:45.725Z,33.80
2022-08-17T17:26:16.982Z,33.60
2022-08-17T17:31:23.683Z,33.40
2022-08-17T17:36:32.588Z,33.20
2022-08-17T17:41:51.472Z,32.90
2022-08-17T17:46:57.267Z,32.70
2022-08-17T17:52:32.363Z,32.50
2022-08-17T17:58:01.032Z,32.10
2022-08-17T18:03:24.246Z,31.80
2022-08-17T18:08:34.771Z,31.60
2022-08-17T18:14:04.992Z,31.40
2022-08-17T18:19:12.163Z,31.20
2022-08-17T18:24:14.741Z,30.90
2022-08-17T18:29:31.928Z,30.50
2022-08-17T18:34:47.190Z,30.20
2022-08-17T18:39:49.827Z,29.80
2022-08-17T18:44:55.253Z,29.60
2022-08-17T18:50:33.499Z,29.40
2022-08-17T18:55:35.683Z,29.10
2022-08-17T19:00:44.933Z,28.90
2022-08-17T19:07:17.133Z,28.70
2022-08-17T19:13:00.605Z,28.60
2022-08-17T19:18:35.710Z,28.40
2022-08-17T19:23:41.933Z,28.00
2022-08-17T19:29:22.576Z,27.90
2022-08-17T19:34:33.525Z,27.70
2022-08-17T19:39:42.359Z,27.20
2022-08-17T19:44:56.465Z,27.40
2022-08-17T19:50:14.881Z,27.20
2022-08-17T19:55:24.654Z,27.10
2022-08-17T20:00:27.024Z,27.00
2022-08-17T20:06:00.926Z,26.90
2022-08-17T20:10:58.815Z,26.80
2022-08-17T20:16:02.666Z,26.70
2022-08-17T20:21:20.207Z,26.60
2022-08-17T20:26:34.279Z,26.30
2022-08-17T20:31:45.369Z,26.40
2022-08-17T20:37:12.374Z,26.30
2022-08-17T20:42:20.704Z,26.20
2022-08-17T20:47:30.258Z,26.00
2022-08-17T20:52:55.245Z,26.00
2022-08-17T20:57:57.416Z,25.60
2022-08-17T21:03:24.307Z,25.50
2022-08-17T21:08:34.439Z,25.50
2022-08-17T21:13:49.225Z,25.40
2022-08-17T21:19:17.881Z,25.60
2022-08-17T21:24:51.432Z,25.20
2022-08-17T21:30:06.479Z,25.10
2022-08-17T21:35:19.500Z,25.10
2022-08-17T21:40:26.184Z,25.00
2022-08-17T21:45:36.062Z,24.80
2022-08-17T21:50:41.510Z,24.90
2022-08-17T21:55:50.139Z,24.80
2022-08-17T22:01:09.592Z,24.70
2022-08-17T22:06:41.576Z,24.50
2022-08-17T22:12:07.466Z,24.60
2022-08-17T22:17:15.928Z,24.70
2022-08-17T22:22:35.099Z,24.50
2022-08-17T22:27:49.287Z,24.50
2022-08-17T22:32:51.963Z,24.50
2022-08-17T22:37:54.706Z,24.40
2022-08-17T22:43:00.035Z,24.40
2022-08-17T22:48:02.481Z,24.50
2022-08-17T22:53:34.143Z,24.50
2022-08-17T22:59:10.963Z,24.70
2022-08-17T23:04:30.895Z,24.50
2022-08-17T23:09:34.228Z,24.60
2022-08-17T23:14:45.758Z,24.60
2022-08-17T23:19:47.920Z,24.70
2022-08-17T23:24:50.543Z,24.90
2022-08-17T23:29:52.689Z,25.00
2022-08-17T23:34:54.833Z,24.60
2022-08-17T23:39:57.198Z,25.00
2022-08-17T23:44:59.340Z,25.10
2022-08-17T23:50:05.378Z,25.10
2022-08-17T23:55:08.409Z,25.20
